sensor_id;sensor_type;location;lat;lon;timestamp;P1;durP1;ratioP1;P2;durP2;ratioP2
40621;SDS011;26324;52.040;11.528;2023-07-31T00:01:16;3.80;;;0.90;;
40621;SDS011;26324;52.040;11.528;2023-07-31T00:03:45;3.33;;;1.00;;
40621;SDS011;26324;52.040;11.528;2023-07-31T00:06:13;2.28;;;0.60;;
40621;SDS011;26324;52.040;11.528;2023-07-31T00:08:40;2.83;;;0.65;;
40621;SDS011;26324;52.040;11.528;2023-07-31T00:11:07;2.63;;;0.65;;
40621;SDS011;26324;52.040;11.528;2023-07-31T00:13:35;1.42;;;0.70;;
40621;SDS011;26324;52.040;11.528;2023-07-31T00:16:02;3.95;;;1.00;;
40621;SDS011;26324;52.040;11.528;2023-07-31T00:18:30;2.45;;;0.80;;
40621;SDS011;26324;52.040;11.528;2023-07-31T00:20:59;1.85;;;0.82;;
40621;SDS011;26324;52.040;11.528;2023-07-31T00:23:33;2.10;;;0.63;;
40621;SDS011;26324;52.040;11.528;2023-07-31T00:26:11;1.92;;;0.98;;
40621;SDS011;26324;52.040;11.528;2023-07-31T00:28:45;2.88;;;0.63;;
40621;SDS011;26324;52.040;11.528;2023-07-31T00:31:14;2.03;;;0.80;;
40621;SDS011;26324;52.040;11.528;2023-07-31T00:33:48;2.75;;;0.68;;
40621;SDS011;26324;52.040;11.528;2023-07-31T00:36:16;3.97;;;1.15;;
40621;SDS011;26324;52.040;11.528;2023-07-31T00:38:45;3.20;;;0.70;;
40621;SDS011;26324;52.040;11.528;2023-07-31T00:41:17;1.63;;;0.60;;
40621;SDS011;26324;52.040;11.528;2023-07-31T00:43:45;2.97;;;0.95;;
40621;SDS011;26324;52.040;11.528;2023-07-31T00:46:13;1.75;;;0.80;;
40621;SDS011;26324;52.040;11.528;2023-07-31T00:48:40;1.20;;;0.80;;
40621;SDS011;26324;52.040;11.528;2023-07-31T00:51:08;2.85;;;1.02;;
40621;SDS011;26324;52.040;11.528;2023-07-31T00:53:42;2.67;;;0.90;;
40621;SDS011;26324;52.040;11.528;2023-07-31T00:56:10;1.98;;;0.88;;
40621;SDS011;26324;52.040;11.528;2023-07-31T00:58:39;1.80;;;0.88;;
40621;SDS011;26324;52.040;11.528;2023-07-31T01:01:09;2.08;;;0.85;;
40621;SDS011;26324;52.040;11.528;2023-07-31T01:03:38;2.60;;;0.80;;
40621;SDS011;26324;52.040;11.528;2023-07-31T01:08:59;2.47;;;0.80;;
40621;SDS011;26324;52.040;11.528;2023-07-31T01:11:33;2.72;;;0.68;;
40621;SDS011;26324;52.040;11.528;2023-07-31T01:14:05;2.83;;;0.90;;
40621;SDS011;26324;52.040;11.528;2023-07-31T01:16:35;1.83;;;1.17;;
40621;SDS011;26324;52.040;11.528;2023-07-31T01:19:05;2.45;;;0.85;;
40621;SDS011;26324;52.040;11.528;2023-07-31T01:27:09;1.73;;;1.08;;
40621;SDS011;26324;52.040;11.528;2023-07-31T01:32:20;2.67;;;0.90;;
40621;SDS011;26324;52.040;11.528;2023-07-31T01:34:49;3.85;;;0.70;;
40621;SDS011;26324;52.040;11.528;2023-07-31T01:37:18;1.45;;;0.70;;
40621;SDS011;26324;52.040;11.528;2023-07-31T01:39:45;1.48;;;0.80;;
40621;SDS011;26324;52.040;11.528;2023-07-31T01:42:13;3.03;;;0.77;;
40621;SDS011;26324;52.040;11.528;2023-07-31T01:44:43;2.83;;;0.90;;
40621;SDS011;26324;52.040;11.528;2023-07-31T01:47:10;4.70;;;0.70;;
40621;SDS011;26324;52.040;11.528;2023-07-31T01:49:40;2.03;;;0.65;;
40621;SDS011;26324;52.040;11.528;2023-07-31T01:52:12;1.10;;;0.70;;
40621;SDS011;26324;52.040;11.528;2023-07-31T01:54:39;2.10;;;0.88;;
40621;SDS011;26324;52.040;11.528;2023-07-31T01:57:07;2.15;;;0.60;;
40621;SDS011;26324;52.040;11.528;2023-07-31T01:59:35;0.85;;;0.60;;
40621;SDS011;26324;52.040;11.528;2023-07-31T02:02:03;2.28;;;0.80;;
40621;SDS011;26324;52.040;11.528;2023-07-31T02:04:31;3.10;;;0.98;;
40621;SDS011;26324;52.040;11.528;2023-07-31T02:06:59;3.17;;;0.85;;
40621;SDS011;26324;52.040;11.528;2023-07-31T02:09:26;2.40;;;0.70;;
40621;SDS011;26324;52.040;11.528;2023-07-31T02:11:54;2.05;;;0.88;;
40621;SDS011;26324;52.040;11.528;2023-07-31T02:14:22;2.13;;;1.15;;
40621;SDS011;26324;52.040;11.528;2023-07-31T02:16:49;2.70;;;0.73;;
40621;SDS011;26324;52.040;11.528;2023-07-31T02:19:17;3.20;;;1.00;;
40621;SDS011;26324;52.040;11.528;2023-07-31T02:21:46;1.75;;;0.63;;
40621;SDS011;26324;52.040;11.528;2023-07-31T02:24:14;1.25;;;0.70;;
40621;SDS011;26324;52.040;11.528;2023-07-31T02:26:41;1.98;;;0.70;;
40621;SDS011;26324;52.040;11.528;2023-07-31T02:29:09;2.40;;;0.55;;
40621;SDS011;26324;52.040;11.528;2023-07-31T02:31:36;2.72;;;0.70;;
40621;SDS011;26324;52.040;11.528;2023-07-31T02:34:05;3.58;;;0.70;;
40621;SDS011;26324;52.040;11.528;2023-07-31T02:36:33;1.75;;;0.60;;
40621;SDS011;26324;52.040;11.528;2023-07-31T02:39:00;0.68;;;0.40;;
40621;SDS011;26324;52.040;11.528;2023-07-31T02:41:30;1.52;;;0.55;;
40621;SDS011;26324;52.040;11.528;2023-07-31T02:43:57;1.35;;;0.60;;
40621;SDS011;26324;52.040;11.528;2023-07-31T02:48:54;0.85;;;0.40;;
40621;SDS011;26324;52.040;11.528;2023-07-31T02:51:21;2.47;;;0.40;;
40621;SDS011;26324;52.040;11.528;2023-07-31T02:53:49;1.23;;;0.60;;
40621;SDS011;26324;52.040;11.528;2023-07-31T02:56:16;0.77;;;0.50;;
40621;SDS011;26324;52.040;11.528;2023-07-31T02:58:44;1.20;;;0.50;;
40621;SDS011;26324;52.040;11.528;2023-07-31T03:01:11;0.57;;;0.40;;
40621;SDS011;26324;52.040;11.528;2023-07-31T03:03:38;1.48;;;0.30;;
40621;SDS011;26324;52.040;11.528;2023-07-31T03:08:34;1.38;;;0.30;;
40621;SDS011;26324;52.040;11.528;2023-07-31T03:11:01;0.52;;;0.20;;
40621;SDS011;26324;52.040;11.528;2023-07-31T03:13:29;0.43;;;0.28;;
40621;SDS011;26324;52.040;11.528;2023-07-31T03:15:56;0.55;;;0.25;;
40621;SDS011;26324;52.040;11.528;2023-07-31T03:18:23;0.30;;;0.20;;
40621;SDS011;26324;52.040;11.528;2023-07-31T03:20:51;1.05;;;0.30;;
40621;SDS011;26324;52.040;11.528;2023-07-31T03:23:18;0.60;;;0.30;;
40621;SDS011;26324;52.040;11.528;2023-07-31T03:25:55;0.70;;;0.40;;
40621;SDS011;26324;52.040;11.528;2023-07-31T03:28:27;0.57;;;0.30;;
40621;SDS011;26324;52.040;11.528;2023-07-31T03:30:55;0.98;;;0.20;;
40621;SDS011;26324;52.040;11.528;2023-07-31T03:33:22;0.80;;;0.20;;
40621;SDS011;26324;52.040;11.528;2023-07-31T03:35:50;0.50;;;0.30;;
40621;SDS011;26324;52.040;11.528;2023-07-31T03:38:17;0.98;;;0.40;;
40621;SDS011;26324;52.040;11.528;2023-07-31T03:40:45;0.98;;;0.28;;
40621;SDS011;26324;52.040;11.528;2023-07-31T03:43:12;0.73;;;0.30;;
40621;SDS011;26324;52.040;11.528;2023-07-31T03:45:40;0.30;;;0.20;;
40621;SDS011;26324;52.040;11.528;2023-07-31T03:48:07;1.73;;;0.50;;
40621;SDS011;26324;52.040;11.528;2023-07-31T03:50:35;2.13;;;0.40;;
40621;SDS011;26324;52.040;11.528;2023-07-31T03:53:02;1.70;;;0.25;;
40621;SDS011;26324;52.040;11.528;2023-07-31T03:55:30;0.30;;;0.30;;
40621;SDS011;26324;52.040;11.528;2023-07-31T03:57:57;0.90;;;0.50;;
40621;SDS011;26324;52.040;11.528;2023-07-31T04:00:24;1.63;;;0.43;;
40621;SDS011;26324;52.040;11.528;2023-07-31T04:02:54;1.30;;;0.40;;
40621;SDS011;26324;52.040;11.528;2023-07-31T04:05:21;0.60;;;0.30;;
40621;SDS011;26324;52.040;11.528;2023-07-31T04:07:49;1.55;;;0.30;;
40621;SDS011;26324;52.040;11.528;2023-07-31T04:10:16;1.45;;;0.40;;
40621;SDS011;26324;52.040;11.528;2023-07-31T04:12:43;1.05;;;0.30;;
40621;SDS011;26324;52.040;11.528;2023-07-31T04:15:10;2.60;;;0.40;;
40621;SDS011;26324;52.040;11.528;2023-07-31T04:17:38;0.90;;;0.35;;
40621;SDS011;26324;52.040;11.528;2023-07-31T04:20:05;0.50;;;0.20;;
40621;SDS011;26324;52.040;11.528;2023-07-31T04:22:33;0.57;;;0.20;;
40621;SDS011;26324;52.040;11.528;2023-07-31T04:25:00;0.80;;;0.40;;
40621;SDS011;26324;52.040;11.528;2023-07-31T04:27:28;1.08;;;0.63;;
40621;SDS011;26324;52.040;11.528;2023-07-31T04:29:55;1.48;;;0.38;;
40621;SDS011;26324;52.040;11.528;2023-07-31T04:32:22;0.60;;;0.47;;
40621;SDS011;26324;52.040;11.528;2023-07-31T04:34:50;1.00;;;0.50;;
40621;SDS011;26324;52.040;11.528;2023-07-31T04:37:17;0.98;;;0.32;;
40621;SDS011;26324;52.040;11.528;2023-07-31T04:39:44;3.45;;;0.40;;
40621;SDS011;26324;52.040;11.528;2023-07-31T04:42:12;1.77;;;0.30;;
40621;SDS011;26324;52.040;11.528;2023-07-31T04:44:39;1.52;;;0.50;;
40621;SDS011;26324;52.040;11.528;2023-07-31T04:47:06;2.53;;;0.60;;
40621;SDS011;26324;52.040;11.528;2023-07-31T04:49:34;2.40;;;0.60;;
40621;SDS011;26324;52.040;11.528;2023-07-31T04:52:01;2.03;;;0.60;;
40621;SDS011;26324;52.040;11.528;2023-07-31T04:54:29;1.80;;;0.60;;
40621;SDS011;26324;52.040;11.528;2023-07-31T04:56:56;2.35;;;0.60;;
40621;SDS011;26324;52.040;11.528;2023-07-31T04:59:23;2.13;;;0.82;;
40621;SDS011;26324;52.040;11.528;2023-07-31T05:01:51;3.45;;;0.63;;
40621;SDS011;26324;52.040;11.528;2023-07-31T05:04:18;1.08;;;0.60;;
40621;SDS011;26324;52.040;11.528;2023-07-31T05:06:45;0.95;;;0.50;;
40621;SDS011;26324;52.040;11.528;2023-07-31T05:09:13;2.90;;;0.90;;
40621;SDS011;26324;52.040;11.528;2023-07-31T05:11:40;0.85;;;0.50;;
40621;SDS011;26324;52.040;11.528;2023-07-31T05:14:09;0.98;;;0.57;;
40621;SDS011;26324;52.040;11.528;2023-07-31T05:16:37;2.22;;;0.60;;
40621;SDS011;26324;52.040;11.528;2023-07-31T05:19:05;2.70;;;1.05;;
40621;SDS011;26324;52.040;11.528;2023-07-31T05:21:32;4.30;;;0.65;;
40621;SDS011;26324;52.040;11.528;2023-07-31T05:23:59;3.08;;;0.82;;
40621;SDS011;26324;52.040;11.528;2023-07-31T05:26:28;1.58;;;0.68;;
40621;SDS011;26324;52.040;11.528;2023-07-31T05:28:55;2.83;;;0.77;;
40621;SDS011;26324;52.040;11.528;2023-07-31T05:36:23;4.15;;;0.85;;
40621;SDS011;26324;52.040;11.528;2023-07-31T05:38:50;3.28;;;0.70;;
40621;SDS011;26324;52.040;11.528;2023-07-31T05:41:18;3.88;;;1.02;;
40621;SDS011;26324;52.040;11.528;2023-07-31T05:43:45;2.40;;;0.55;;
40621;SDS011;26324;52.040;11.528;2023-07-31T05:46:14;1.63;;;0.90;;
40621;SDS011;26324;52.040;11.528;2023-07-31T05:48:42;1.13;;;0.68;;
40621;SDS011;26324;52.040;11.528;2023-07-31T05:51:09;1.63;;;0.50;;
40621;SDS011;26324;52.040;11.528;2023-07-31T05:53:49;6.57;;;1.10;;
40621;SDS011;26324;52.040;11.528;2023-07-31T05:56:16;1.35;;;0.90;;
40621;SDS011;26324;52.040;11.528;2023-07-31T05:58:44;3.53;;;0.82;;
40621;SDS011;26324;52.040;11.528;2023-07-31T06:01:12;1.40;;;0.75;;
40621;SDS011;26324;52.040;11.528;2023-07-31T06:03:39;1.75;;;0.80;;
40621;SDS011;26324;52.040;11.528;2023-07-31T06:06:06;1.10;;;0.50;;
40621;SDS011;26324;52.040;11.528;2023-07-31T06:08:34;1.35;;;0.80;;
40621;SDS011;26324;52.040;11.528;2023-07-31T06:11:01;3.40;;;0.60;;
40621;SDS011;26324;52.040;11.528;2023-07-31T06:13:29;3.80;;;0.63;;
40621;SDS011;26324;52.040;11.528;2023-07-31T06:15:56;2.22;;;0.80;;
40621;SDS011;26324;52.040;11.528;2023-07-31T06:18:23;1.13;;;0.52;;
40621;SDS011;26324;52.040;11.528;2023-07-31T06:20:51;0.98;;;0.45;;
40621;SDS011;26324;52.040;11.528;2023-07-31T06:23:21;1.58;;;0.55;;
40621;SDS011;26324;52.040;11.528;2023-07-31T06:25:48;2.20;;;0.60;;
40621;SDS011;26324;52.040;11.528;2023-07-31T06:28:16;1.38;;;0.50;;
40621;SDS011;26324;52.040;11.528;2023-07-31T06:30:43;0.95;;;0.55;;
40621;SDS011;26324;52.040;11.528;2023-07-31T06:33:11;3.38;;;1.30;;
40621;SDS011;26324;52.040;11.528;2023-07-31T06:35:38;1.42;;;0.40;;
40621;SDS011;26324;52.040;11.528;2023-07-31T06:38:05;0.57;;;0.30;;
40621;SDS011;26324;52.040;11.528;2023-07-31T06:40:33;1.60;;;0.50;;
40621;SDS011;26324;52.040;11.528;2023-07-31T06:43:00;0.63;;;0.40;;
40621;SDS011;26324;52.040;11.528;2023-07-31T06:45:34;0.50;;;0.30;;
40621;SDS011;26324;52.040;11.528;2023-07-31T06:48:03;1.13;;;0.40;;
40621;SDS011;26324;52.040;11.528;2023-07-31T06:50:31;1.75;;;0.50;;
40621;SDS011;26324;52.040;11.528;2023-07-31T06:52:58;0.75;;;0.50;;
40621;SDS011;26324;52.040;11.528;2023-07-31T06:55:26;2.45;;;0.40;;
40621;SDS011;26324;52.040;11.528;2023-07-31T06:57:54;0.82;;;0.28;;
40621;SDS011;26324;52.040;11.528;2023-07-31T07:00:22;1.23;;;0.60;;
40621;SDS011;26324;52.040;11.528;2023-07-31T07:02:50;0.80;;;0.43;;
40621;SDS011;26324;52.040;11.528;2023-07-31T07:05:18;0.68;;;0.30;;
40621;SDS011;26324;52.040;11.528;2023-07-31T07:07:46;0.68;;;0.32;;
40621;SDS011;26324;52.040;11.528;2023-07-31T07:10:13;0.90;;;0.40;;
40621;SDS011;26324;52.040;11.528;2023-07-31T07:12:40;0.57;;;0.30;;
40621;SDS011;26324;52.040;11.528;2023-07-31T07:15:08;0.30;;;0.22;;
40621;SDS011;26324;52.040;11.528;2023-07-31T07:17:36;1.10;;;0.40;;
40621;SDS011;26324;52.040;11.528;2023-07-31T07:20:03;3.80;;;0.98;;
40621;SDS011;26324;52.040;11.528;2023-07-31T07:22:31;0.63;;;0.30;;
40621;SDS011;26324;52.040;11.528;2023-07-31T07:24:58;1.15;;;0.40;;
40621;SDS011;26324;52.040;11.528;2023-07-31T07:27:26;1.50;;;0.40;;
40621;SDS011;26324;52.040;11.528;2023-07-31T07:29:53;0.85;;;0.30;;
40621;SDS011;26324;52.040;11.528;2023-07-31T07:32:21;0.70;;;0.47;;
40621;SDS011;26324;52.040;11.528;2023-07-31T07:34:48;1.50;;;0.50;;
40621;SDS011;26324;52.040;11.528;2023-07-31T07:37:16;1.15;;;0.40;;
40621;SDS011;26324;52.040;11.528;2023-07-31T07:39:43;1.00;;;0.50;;
40621;SDS011;26324;52.040;11.528;2023-07-31T07:42:11;0.80;;;0.40;;
40621;SDS011;26324;52.040;11.528;2023-07-31T07:44:38;0.68;;;0.32;;
40621;SDS011;26324;52.040;11.528;2023-07-31T07:47:06;0.57;;;0.30;;
40621;SDS011;26324;52.040;11.528;2023-07-31T07:49:34;0.45;;;0.25;;
40621;SDS011;26324;52.040;11.528;2023-07-31T07:52:02;1.38;;;0.52;;
40621;SDS011;26324;52.040;11.528;2023-07-31T07:54:30;1.85;;;0.75;;
40621;SDS011;26324;52.040;11.528;2023-07-31T07:56:58;4.90;;;1.00;;
40621;SDS011;26324;52.040;11.528;2023-07-31T07:59:26;1.80;;;0.82;;
40621;SDS011;26324;52.040;11.528;2023-07-31T08:01:53;1.80;;;0.93;;
40621;SDS011;26324;52.040;11.528;2023-07-31T08:04:20;3.65;;;1.00;;
40621;SDS011;26324;52.040;11.528;2023-07-31T08:06:48;2.45;;;1.10;;
40621;SDS011;26324;52.040;11.528;2023-07-31T08:09:15;2.72;;;1.10;;
40621;SDS011;26324;52.040;11.528;2023-07-31T08:11:43;2.33;;;0.93;;
40621;SDS011;26324;52.040;11.528;2023-07-31T08:14:10;3.67;;;1.20;;
40621;SDS011;26324;52.040;11.528;2023-07-31T08:16:38;1.85;;;0.98;;
40621;SDS011;26324;52.040;11.528;2023-07-31T08:19:06;2.28;;;1.10;;
40621;SDS011;26324;52.040;11.528;2023-07-31T08:21:33;3.28;;;0.98;;
40621;SDS011;26324;52.040;11.528;2023-07-31T08:24:01;2.65;;;1.42;;
40621;SDS011;26324;52.040;11.528;2023-07-31T08:26:28;7.30;;;1.20;;
40621;SDS011;26324;52.040;11.528;2023-07-31T08:28:55;3.17;;;1.42;;
40621;SDS011;26324;52.040;11.528;2023-07-31T08:31:24;3.67;;;1.42;;
40621;SDS011;26324;52.040;11.528;2023-07-31T08:33:51;3.78;;;1.25;;
40621;SDS011;26324;52.040;11.528;2023-07-31T08:36:19;3.00;;;1.65;;
40621;SDS011;26324;52.040;11.528;2023-07-31T08:38:46;4.55;;;1.67;;
40621;SDS011;26324;52.040;11.528;2023-07-31T08:41:14;4.47;;;1.40;;
40621;SDS011;26324;52.040;11.528;2023-07-31T08:43:46;1.88;;;1.08;;
40621;SDS011;26324;52.040;11.528;2023-07-31T08:46:16;2.50;;;1.20;;
40621;SDS011;26324;52.040;11.528;2023-07-31T08:48:43;3.47;;;1.38;;
40621;SDS011;26324;52.040;11.528;2023-07-31T08:51:13;4.53;;;1.45;;
40621;SDS011;26324;52.040;11.528;2023-07-31T08:53:41;3.33;;;1.30;;
40621;SDS011;26324;52.040;11.528;2023-07-31T08:56:08;4.18;;;1.50;;
40621;SDS011;26324;52.040;11.528;2023-07-31T08:58:38;2.88;;;1.13;;
40621;SDS011;26324;52.040;11.528;2023-07-31T09:01:06;3.13;;;1.17;;
40621;SDS011;26324;52.040;11.528;2023-07-31T09:03:34;3.25;;;1.20;;
40621;SDS011;26324;52.040;11.528;2023-07-31T09:06:03;3.05;;;1.33;;
40621;SDS011;26324;52.040;11.528;2023-07-31T09:08:33;2.53;;;1.50;;
40621;SDS011;26324;52.040;11.528;2023-07-31T09:11:01;1.83;;;1.05;;
40621;SDS011;26324;52.040;11.528;2023-07-31T09:13:32;3.25;;;1.40;;
40621;SDS011;26324;52.040;11.528;2023-07-31T09:16:00;2.33;;;1.33;;
40621;SDS011;26324;52.040;11.528;2023-07-31T09:18:27;3.75;;;1.25;;
40621;SDS011;26324;52.040;11.528;2023-07-31T09:21:02;2.45;;;1.13;;
40621;SDS011;26324;52.040;11.528;2023-07-31T09:23:43;2.45;;;1.23;;
40621;SDS011;26324;52.040;11.528;2023-07-31T09:26:12;3.22;;;1.65;;
40621;SDS011;26324;52.040;11.528;2023-07-31T09:28:59;3.55;;;1.05;;
40621;SDS011;26324;52.040;11.528;2023-07-31T09:31:31;3.25;;;1.27;;
40621;SDS011;26324;52.040;11.528;2023-07-31T09:34:05;3.45;;;1.10;;
40621;SDS011;26324;52.040;11.528;2023-07-31T09:36:32;3.65;;;1.23;;
40621;SDS011;26324;52.040;11.528;2023-07-31T09:39:09;3.22;;;1.30;;
40621;SDS011;26324;52.040;11.528;2023-07-31T09:41:39;4.55;;;1.75;;
40621;SDS011;26324;52.040;11.528;2023-07-31T09:44:07;2.53;;;1.10;;
40621;SDS011;26324;52.040;11.528;2023-07-31T09:46:36;3.40;;;1.30;;
40621;SDS011;26324;52.040;11.528;2023-07-31T09:49:09;2.15;;;1.10;;
40621;SDS011;26324;52.040;11.528;2023-07-31T09:51:38;3.53;;;1.40;;
40621;SDS011;26324;52.040;11.528;2023-07-31T09:56:45;4.05;;;1.17;;
40621;SDS011;26324;52.040;11.528;2023-07-31T09:59:16;3.85;;;1.10;;
40621;SDS011;26324;52.040;11.528;2023-07-31T10:01:50;2.63;;;1.02;;
40621;SDS011;26324;52.040;11.528;2023-07-31T10:04:20;1.98;;;1.23;;
40621;SDS011;26324;52.040;11.528;2023-07-31T10:06:53;2.58;;;1.17;;
40621;SDS011;26324;52.040;11.528;2023-07-31T10:09:21;2.95;;;1.27;;
40621;SDS011;26324;52.040;11.528;2023-07-31T10:11:53;3.30;;;1.25;;
40621;SDS011;26324;52.040;11.528;2023-07-31T10:14:25;2.65;;;1.23;;
40621;SDS011;26324;52.040;11.528;2023-07-31T10:19:21;4.28;;;1.42;;
40621;SDS011;26324;52.040;11.528;2023-07-31T10:21:49;4.22;;;1.60;;
40621;SDS011;26324;52.040;11.528;2023-07-31T10:24:16;3.65;;;1.33;;
40621;SDS011;26324;52.040;11.528;2023-07-31T10:26:45;2.67;;;1.10;;
40621;SDS011;26324;52.040;11.528;2023-07-31T10:29:14;1.58;;;0.77;;
40621;SDS011;26324;52.040;11.528;2023-07-31T10:31:45;1.40;;;0.77;;
40621;SDS011;26324;52.040;11.528;2023-07-31T10:34:14;3.85;;;0.90;;
40621;SDS011;26324;52.040;11.528;2023-07-31T10:36:42;1.75;;;0.80;;
40621;SDS011;26324;52.040;11.528;2023-07-31T10:42:11;2.42;;;0.70;;
40621;SDS011;26324;52.040;11.528;2023-07-31T10:44:46;1.88;;;0.70;;
40621;SDS011;26324;52.040;11.528;2023-07-31T10:47:14;1.85;;;0.63;;
40621;SDS011;26324;52.040;11.528;2023-07-31T10:49:46;2.45;;;0.82;;
40621;SDS011;26324;52.040;11.528;2023-07-31T10:52:19;1.98;;;0.77;;
40621;SDS011;26324;52.040;11.528;2023-07-31T10:57:58;2.80;;;1.42;;
40621;SDS011;26324;52.040;11.528;2023-07-31T11:00:42;3.20;;;0.90;;
40621;SDS011;26324;52.040;11.528;2023-07-31T11:03:18;1.88;;;0.82;;
40621;SDS011;26324;52.040;11.528;2023-07-31T11:05:52;2.40;;;1.00;;
40621;SDS011;26324;52.040;11.528;2023-07-31T11:10:50;2.50;;;1.10;;
40621;SDS011;26324;52.040;11.528;2023-07-31T11:13:32;2.22;;;0.90;;
40621;SDS011;26324;52.040;11.528;2023-07-31T11:16:01;2.90;;;1.20;;
40621;SDS011;26324;52.040;11.528;2023-07-31T11:18:28;1.98;;;1.08;;
40621;SDS011;26324;52.040;11.528;2023-07-31T11:20:56;2.10;;;1.00;;
40621;SDS011;26324;52.040;11.528;2023-07-31T11:23:23;3.70;;;0.98;;
40621;SDS011;26324;52.040;11.528;2023-07-31T11:25:51;2.92;;;1.00;;
40621;SDS011;26324;52.040;11.528;2023-07-31T11:28:19;3.05;;;0.93;;
40621;SDS011;26324;52.040;11.528;2023-07-31T11:30:47;3.38;;;0.85;;
40621;SDS011;26324;52.040;11.528;2023-07-31T11:33:15;3.72;;;1.05;;
40621;SDS011;26324;52.040;11.528;2023-07-31T11:38:21;2.38;;;1.13;;
40621;SDS011;26324;52.040;11.528;2023-07-31T11:40:53;2.92;;;0.93;;
40621;SDS011;26324;52.040;11.528;2023-07-31T11:43:22;2.17;;;0.90;;
40621;SDS011;26324;52.040;11.528;2023-07-31T11:45:51;1.95;;;0.93;;
40621;SDS011;26324;52.040;11.528;2023-07-31T11:48:21;2.35;;;1.27;;
40621;SDS011;26324;52.040;11.528;2023-07-31T11:50:54;2.80;;;0.82;;
40621;SDS011;26324;52.040;11.528;2023-07-31T11:53:33;1.67;;;0.90;;
40621;SDS011;26324;52.040;11.528;2023-07-31T11:56:07;2.50;;;1.15;;
40621;SDS011;26324;52.040;11.528;2023-07-31T11:58:38;1.90;;;0.95;;
40621;SDS011;26324;52.040;11.528;2023-07-31T12:01:07;2.20;;;1.15;;
40621;SDS011;26324;52.040;11.528;2023-07-31T12:03:35;4.25;;;1.13;;
40621;SDS011;26324;52.040;11.528;2023-07-31T12:06:03;2.40;;;0.98;;
40621;SDS011;26324;52.040;11.528;2023-07-31T12:08:31;2.75;;;1.05;;
40621;SDS011;26324;52.040;11.528;2023-07-31T12:11:02;1.88;;;1.05;;
40621;SDS011;26324;52.040;11.528;2023-07-31T12:13:36;1.95;;;0.93;;
40621;SDS011;26324;52.040;11.528;2023-07-31T12:16:04;2.05;;;0.95;;
40621;SDS011;26324;52.040;11.528;2023-07-31T12:18:36;4.32;;;1.00;;
40621;SDS011;26324;52.040;11.528;2023-07-31T12:21:05;2.40;;;0.85;;
40621;SDS011;26324;52.040;11.528;2023-07-31T12:23:36;3.65;;;1.05;;
40621;SDS011;26324;52.040;11.528;2023-07-31T12:28:42;2.97;;;1.02;;
40621;SDS011;26324;52.040;11.528;2023-07-31T12:31:14;1.83;;;0.90;;
40621;SDS011;26324;52.040;11.528;2023-07-31T12:33:47;3.03;;;0.85;;
40621;SDS011;26324;52.040;11.528;2023-07-31T12:36:17;3.10;;;1.00;;
40621;SDS011;26324;52.040;11.528;2023-07-31T12:38:49;2.78;;;1.30;;
40621;SDS011;26324;52.040;11.528;2023-07-31T12:41:18;1.90;;;0.90;;
40621;SDS011;26324;52.040;11.528;2023-07-31T12:43:46;1.73;;;0.98;;
40621;SDS011;26324;52.040;11.528;2023-07-31T12:46:13;2.78;;;1.15;;
40621;SDS011;26324;52.040;11.528;2023-07-31T12:48:42;2.28;;;0.90;;
40621;SDS011;26324;52.040;11.528;2023-07-31T12:51:09;4.43;;;1.17;;
40621;SDS011;26324;52.040;11.528;2023-07-31T12:53:36;2.78;;;1.27;;
40621;SDS011;26324;52.040;11.528;2023-07-31T12:56:04;2.95;;;1.17;;
40621;SDS011;26324;52.040;11.528;2023-07-31T12:58:32;1.95;;;1.02;;
40621;SDS011;26324;52.040;11.528;2023-07-31T13:00:59;2.45;;;0.98;;
40621;SDS011;26324;52.040;11.528;2023-07-31T13:03:30;2.60;;;1.02;;
40621;SDS011;26324;52.040;11.528;2023-07-31T13:05:58;5.03;;;1.40;;
40621;SDS011;26324;52.040;11.528;2023-07-31T13:08:25;2.83;;;1.30;;
40621;SDS011;26324;52.040;11.528;2023-07-31T13:10:52;2.65;;;1.10;;
40621;SDS011;26324;52.040;11.528;2023-07-31T13:13:20;2.53;;;1.10;;
40621;SDS011;26324;52.040;11.528;2023-07-31T13:15:49;3.05;;;1.63;;
40621;SDS011;26324;52.040;11.528;2023-07-31T13:18:17;2.75;;;1.42;;
40621;SDS011;26324;52.040;11.528;2023-07-31T13:20:44;1.70;;;0.90;;
40621;SDS011;26324;52.040;11.528;2023-07-31T13:23:12;2.42;;;1.10;;
40621;SDS011;26324;52.040;11.528;2023-07-31T13:25:39;2.58;;;1.50;;
40621;SDS011;26324;52.040;11.528;2023-07-31T13:28:07;3.50;;;1.40;;
40621;SDS011;26324;52.040;11.528;2023-07-31T13:30:35;2.25;;;0.98;;
40621;SDS011;26324;52.040;11.528;2023-07-31T13:33:03;3.65;;;1.40;;
40621;SDS011;26324;52.040;11.528;2023-07-31T13:35:31;3.05;;;1.58;;
40621;SDS011;26324;52.040;11.528;2023-07-31T13:37:58;3.35;;;1.50;;
40621;SDS011;26324;52.040;11.528;2023-07-31T13:40:26;3.08;;;1.48;;
40621;SDS011;26324;52.040;11.528;2023-07-31T13:42:54;2.35;;;1.00;;
40621;SDS011;26324;52.040;11.528;2023-07-31T13:45:22;1.73;;;1.00;;
40621;SDS011;26324;52.040;11.528;2023-07-31T13:47:50;2.15;;;1.00;;
40621;SDS011;26324;52.040;11.528;2023-07-31T13:50:18;2.70;;;1.30;;
40621;SDS011;26324;52.040;11.528;2023-07-31T13:52:48;3.08;;;0.90;;
40621;SDS011;26324;52.040;11.528;2023-07-31T13:55:16;3.55;;;1.10;;
40621;SDS011;26324;52.040;11.528;2023-07-31T13:57:43;2.15;;;1.05;;
40621;SDS011;26324;52.040;11.528;2023-07-31T14:00:11;2.95;;;1.02;;
40621;SDS011;26324;52.040;11.528;2023-07-31T14:02:40;2.30;;;1.10;;
40621;SDS011;26324;52.040;11.528;2023-07-31T14:05:07;3.78;;;1.27;;
40621;SDS011;26324;52.040;11.528;2023-07-31T14:07:36;4.22;;;1.10;;
40621;SDS011;26324;52.040;11.528;2023-07-31T14:10:04;2.92;;;1.25;;
40621;SDS011;26324;52.040;11.528;2023-07-31T14:12:32;2.53;;;1.45;;
40621;SDS011;26324;52.040;11.528;2023-07-31T14:15:09;2.42;;;1.20;;
40621;SDS011;26324;52.040;11.528;2023-07-31T14:17:38;2.40;;;1.10;;
40621;SDS011;26324;52.040;11.528;2023-07-31T14:20:06;1.85;;;1.17;;
40621;SDS011;26324;52.040;11.528;2023-07-31T14:22:35;2.28;;;1.00;;
40621;SDS011;26324;52.040;11.528;2023-07-31T14:25:03;1.95;;;0.98;;
40621;SDS011;26324;52.040;11.528;2023-07-31T14:27:30;1.98;;;0.98;;
40621;SDS011;26324;52.040;11.528;2023-07-31T14:29:58;2.08;;;0.70;;
40621;SDS011;26324;52.040;11.528;2023-07-31T14:32:26;1.92;;;1.20;;
40621;SDS011;26324;52.040;11.528;2023-07-31T14:34:54;2.13;;;0.60;;
40621;SDS011;26324;52.040;11.528;2023-07-31T14:37:22;2.97;;;0.80;;
40621;SDS011;26324;52.040;11.528;2023-07-31T14:39:50;1.92;;;0.70;;
40621;SDS011;26324;52.040;11.528;2023-07-31T14:42:18;1.48;;;0.70;;
40621;SDS011;26324;52.040;11.528;2023-07-31T14:44:46;0.95;;;0.55;;
40621;SDS011;26324;52.040;11.528;2023-07-31T14:47:14;2.33;;;0.90;;
40621;SDS011;26324;52.040;11.528;2023-07-31T14:49:42;1.92;;;0.75;;
40621;SDS011;26324;52.040;11.528;2023-07-31T14:52:09;1.98;;;0.60;;
40621;SDS011;26324;52.040;11.528;2023-07-31T14:54:37;1.52;;;0.68;;
40621;SDS011;26324;52.040;11.528;2023-07-31T14:57:05;1.10;;;0.50;;
40621;SDS011;26324;52.040;11.528;2023-07-31T14:59:32;2.72;;;0.70;;
40621;SDS011;26324;52.040;11.528;2023-07-31T15:02:00;2.15;;;0.50;;
40621;SDS011;26324;52.040;11.528;2023-07-31T15:04:29;1.45;;;0.63;;
40621;SDS011;26324;52.040;11.528;2023-07-31T15:06:57;1.08;;;0.50;;
40621;SDS011;26324;52.040;11.528;2023-07-31T15:09:24;1.17;;;0.70;;
40621;SDS011;26324;52.040;11.528;2023-07-31T15:11:52;1.00;;;0.50;;
40621;SDS011;26324;52.040;11.528;2023-07-31T15:14:20;1.40;;;0.60;;
40621;SDS011;26324;52.040;11.528;2023-07-31T15:16:48;1.75;;;1.40;;
40621;SDS011;26324;52.040;11.528;2023-07-31T15:19:16;1.27;;;0.65;;
40621;SDS011;26324;52.040;11.528;2023-07-31T15:21:44;1.23;;;0.65;;